Time;durP1;ratioP1;P1;durP2;ratioP2;P2;SDS_P1;SDS_P2;PMS_P1;PMS_P2;Temp;Humidity;BMP_temperature;BMP_pressure;BME280_temperature;BME280_humidity;BME280_pressure;Samples;Min_cycle;Max_cycle;Signal;HPM_P1;HPM_P2
2021/11/09 00:01:04;;;;;;;1.20;1.03;;;3.30;98.00;;;;;;6184970;23;20396;-69
2021/11/09 00:03:33;;;;;;;1.30;1.27;;;3.30;98.00;;;;;;6185121;23;20414;-69
2021/11/09 00:06:07;;;;;;;1.20;1.00;;;3.20;98.00;;;;;;6185392;23;20396;-69
2021/11/09 00:08:40;;;;;;;1.80;1.47;;;3.30;98.00;;;;;;6185141;23;20459;-69
2021/11/09 00:11:08;;;;;;;1.87;1.10;;;3.30;98.00;;;;;;6185014;23;20403;-69
2021/11/09 00:13:35;;;;;;;1.40;1.20;;;3.40;98.00;;;;;;6185044;23;20593;-69
2021/11/09 00:16:02;;;;;;;2.63;2.17;;;3.40;98.00;;;;;;6184889;23;20419;-69
2021/11/09 00:18:29;;;;;;;1.57;1.27;;;3.50;98.00;;;;;;6185153;23;20878;-69
2021/11/09 00:20:57;;;;;;;2.60;1.33;;;3.40;98.00;;;;;;6185525;23;20395;-69
2021/11/09 00:23:24;;;;;;;1.60;1.30;;;3.20;98.00;;;;;;6184422;23;20415;-69
2021/11/09 00:25:51;;;;;;;1.20;1.07;;;3.20;98.00;;;;;;6185003;23;20455;-69
2021/11/09 00:28:20;;;;;;;3.53;1.40;;;3.00;98.00;;;;;;6185267;23;20459;-69
2021/11/09 00:30:47;;;;;;;1.37;1.10;;;3.00;98.00;;;;;;6158811;23;20851;-69
2021/11/09 00:33:14;;;;;;;6.13;3.60;;;3.00;98.00;;;;;;6185134;23;20499;-69
2021/11/09 00:35:42;;;;;;;3.00;1.70;;;3.20;98.00;;;;;;6185411;23;20403;-69
2021/11/09 00:38:11;;;;;;;1.30;1.20;;;3.10;98.00;;;;;;6185397;23;20403;-69
2021/11/09 00:40:41;;;;;;;4.13;1.77;;;3.00;98.00;;;;;;6185149;23;20477;-69
2021/11/09 00:43:09;;;;;;;1.30;1.27;;;2.90;98.00;;;;;;6159193;23;20784;-69
2021/11/09 00:45:38;;;;;;;1.40;1.20;;;2.90;98.00;;;;;;6184570;23;20420;-69
2021/11/09 00:48:06;;;;;;;2.43;1.30;;;3.10;98.00;;;;;;6184691;23;20423;-69
2021/11/09 00:50:35;;;;;;;1.50;1.30;;;3.00;98.00;;;;;;6184370;23;20474;-69
2021/11/09 00:53:03;;;;;;;1.47;1.40;;;3.00;98.00;;;;;;6184390;23;20485;-69
2021/11/09 00:55:31;;;;;;;1.23;1.10;;;3.10;98.00;;;;;;6184983;23;20407;-69
2021/11/09 00:57:58;;;;;;;1.20;1.00;;;3.20;98.00;;;;;;6184938;23;20408;-69
2021/11/09 01:00:28;;;;;;;1.20;1.10;;;3.20;98.00;;;;;;6184189;23;20427;-69
2021/11/09 01:02:57;;;;;;;1.70;1.30;;;3.40;98.00;;;;;;6184221;23;20451;-69
2021/11/09 01:05:26;;;;;;;1.20;1.00;;;3.40;98.00;;;;;;6184337;23;20407;-69
2021/11/09 01:07:57;;;;;;;1.90;1.23;;;3.50;98.00;;;;;;6184050;23;20474;-69
2021/11/09 01:10:26;;;;;;;2.03;1.20;;;3.30;98.00;;;;;;6184660;23;20396;-69
2021/11/09 01:12:53;;;;;;;1.43;1.30;;;3.40;98.00;;;;;;6184371;23;20443;-69
2021/11/09 01:15:22;;;;;;;1.20;0.97;;;3.60;98.00;;;;;;6184356;23;20719;-69
2021/11/09 01:17:49;;;;;;;1.20;1.13;;;3.60;98.00;;;;;;6184126;23;20957;-69
2021/11/09 01:20:26;;;;;;;1.20;1.10;;;3.60;98.00;;;;;;6184488;23;20454;-69
2021/11/09 01:22:53;;;;;;;1.20;1.00;;;3.70;98.00;;;;;;6184126;23;20399;-69
2021/11/09 01:25:22;;;;;;;1.30;1.20;;;3.80;98.00;;;;;;6184201;23;20458;-69
2021/11/09 01:27:50;;;;;;;2.80;1.50;;;3.80;98.00;;;;;;6184213;23;20416;-68
2021/11/09 01:30:19;;;;;;;3.23;1.43;;;3.70;98.00;;;;;;6184169;23;20921;-69
2021/11/09 01:32:47;;;;;;;1.20;1.20;;;3.80;98.00;;;;;;6184124;23;20449;-69
2021/11/09 01:35:14;;;;;;;1.73;1.40;;;3.80;98.00;;;;;;6184209;23;20395;-69
2021/11/09 01:37:42;;;;;;;2.80;1.33;;;3.80;98.00;;;;;;6184605;23;20446;-69
2021/11/09 01:40:11;;;;;;;1.37;1.20;;;3.90;98.00;;;;;;6184575;23;20493;-69
2021/11/09 01:42:39;;;;;;;1.30;1.23;;;3.90;98.00;;;;;;6184575;23;20423;-69
2021/11/09 01:45:09;;;;;;;1.20;1.10;;;4.00;98.00;;;;;;6184505;23;20472;-69
2021/11/09 01:47:36;;;;;;;1.30;1.10;;;4.10;98.00;;;;;;6184270;23;20427;-69
2021/11/09 01:50:05;;;;;;;1.40;1.30;;;4.00;98.00;;;;;;6184716;23;20419;-69
2021/11/09 01:52:33;;;;;;;1.43;1.17;;;3.90;98.00;;;;;;6184200;23;21012;-69
2021/11/09 01:55:01;;;;;;;1.40;1.40;;;3.90;98.00;;;;;;6182790;23;20424;-69
2021/11/09 01:57:28;;;;;;;1.20;1.00;;;3.80;98.00;;;;;;6184208;23;20449;-69
2021/11/09 01:59:58;;;;;;;1.30;1.20;;;3.80;98.00;;;;;;6183832;23;20465;-69
2021/11/09 02:02:25;;;;;;;1.20;1.00;;;3.70;98.00;;;;;;6183094;23;20419;-69
2021/11/09 02:04:53;;;;;;;1.40;1.10;;;3.70;98.00;;;;;;6183357;23;20786;-69
2021/11/09 02:07:20;;;;;;;2.90;1.63;;;3.80;98.00;;;;;;6183832;23;20473;-69
2021/11/09 02:09:48;;;;;;;2.70;1.30;;;3.90;98.00;;;;;;6184308;23;20474;-69
2021/11/09 02:12:16;;;;;;;6.63;1.20;;;3.90;98.00;;;;;;6183642;23;20411;-69
2021/11/09 02:14:44;;;;;;;1.30;1.20;;;4.00;98.00;;;;;;6184125;23;20497;-69
2021/11/09 02:17:11;;;;;;;2.50;1.60;;;3.90;98.00;;;;;;6183990;23;20764;-69
2021/11/09 02:19:40;;;;;;;1.50;1.33;;;4.00;98.00;;;;;;6184278;23;20410;-69
2021/11/09 02:22:09;;;;;;;1.30;1.20;;;3.90;98.00;;;;;;6186040;23;20403;-69
2021/11/09 02:24:37;;;;;;;1.40;1.30;;;3.90;98.00;;;;;;6185951;23;20469;-69
2021/11/09 02:27:04;;;;;;;2.63;1.37;;;4.00;98.00;;;;;;6185713;23;20918;-69
2021/11/09 02:29:32;;;;;;;1.33;1.27;;;4.00;98.00;;;;;;6159885;23;20462;-69
2021/11/09 02:32:00;;;;;;;3.27;1.30;;;4.00;98.00;;;;;;6185889;23;20400;-68
2021/11/09 02:34:27;;;;;;;1.73;1.40;;;4.00;98.00;;;;;;6160092;23;20431;-69
2021/11/09 02:36:54;;;;;;;1.60;1.33;;;3.90;98.00;;;;;;6185866;23;20412;-69
2021/11/09 02:39:23;;;;;;;1.20;1.00;;;4.00;98.00;;;;;;6185756;23;20419;-69
2021/11/09 02:41:51;;;;;;;1.20;1.00;;;3.90;98.00;;;;;;6186165;23;20457;-69
2021/11/09 02:44:21;;;;;;;1.20;1.10;;;3.90;98.00;;;;;;6186087;23;20911;-69
2021/11/09 02:46:51;;;;;;;1.40;1.23;;;3.90;98.00;;;;;;6185498;23;20423;-69
2021/11/09 02:49:23;;;;;;;1.30;1.00;;;4.00;98.00;;;;;;6186003;23;20400;-69
2021/11/09 02:51:54;;;;;;;1.20;1.03;;;4.00;98.00;;;;;;6186109;23;20396;-69
2021/11/09 02:54:26;;;;;;;1.47;1.30;;;3.90;98.00;;;;;;6185650;23;20468;-69
2021/11/09 02:56:57;;;;;;;5.90;1.30;;;3.90;98.00;;;;;;6185978;23;20778;-69
2021/11/09 03:02:18;;;;;;;1.50;1.33;;;4.00;98.00;;;;;;6177993;23;20411;-69
2021/11/09 03:05:00;;;;;;;1.70;1.30;;;4.00;98.00;;;;;;6185785;23;20405;-69
2021/11/09 03:07:34;;;;;;;2.40;1.47;;;3.90;98.00;;;;;;6185594;23;20416;-68
2021/11/09 03:10:07;;;;;;;3.53;1.53;;;3.90;98.00;;;;;;6186193;23;20478;-68
2021/11/09 03:12:36;;;;;;;1.30;1.30;;;4.00;98.00;;;;;;6185614;23;20434;-68
2021/11/09 03:15:06;;;;;;;1.40;1.27;;;4.10;98.00;;;;;;6185557;23;20438;-68
2021/11/09 03:17:40;;;;;;;1.20;1.17;;;4.00;98.00;;;;;;6185243;23;21076;-68
2021/11/09 03:20:12;;;;;;;1.83;1.40;;;3.90;98.00;;;;;;6185613;23;20399;-68
2021/11/09 03:44:42;;;;;;;1.23;1.10;;;3.60;98.00;;;;;;6195315;23;20391;-68
2021/11/09 03:47:14;;;;;;;1.30;1.30;;;3.60;98.00;;;;;;6185149;23;20433;-68
2021/11/09 03:49:42;;;;;;;1.93;1.10;;;3.30;98.00;;;;;;6185350;23;20400;-68
2021/11/09 03:52:18;;;;;;;1.77;1.50;;;3.20;98.00;;;;;;6185614;23;20408;-68
2021/11/09 03:54:48;;;;;;;1.30;1.07;;;3.30;98.00;;;;;;6185402;23;20427;-68
2021/11/09 03:57:21;;;;;;;1.73;1.53;;;3.10;98.00;;;;;;6185234;23;20400;-68
2021/11/09 03:59:56;;;;;;;1.57;1.23;;;3.00;98.00;;;;;;6185264;23;20396;-68
2021/11/09 04:02:29;;;;;;;2.13;1.40;;;2.90;98.00;;;;;;6185350;23;20399;-68
2021/11/09 04:04:59;;;;;;;1.30;1.30;;;3.10;98.00;;;;;;6185069;23;20450;-68
2021/11/09 04:07:33;;;;;;;2.73;1.87;;;2.90;98.00;;;;;;6185103;23;20688;-68
2021/11/09 04:10:18;;;;;;;2.10;1.60;;;2.80;98.00;;;;;;6185214;23;20867;-68
2021/11/09 04:12:56;;;;;;;1.20;1.07;;;2.80;98.00;;;;;;6184616;23;20435;-68
2021/11/09 04:20:57;;;;;;;1.60;1.20;;;2.70;98.00;;;;;;6180765;23;20422;-68
2021/11/09 04:26:29;;;;;;;2.47;1.73;;;2.40;98.00;;;;;;6185009;23;20451;-68
2021/11/09 04:29:11;;;;;;;3.10;2.60;;;2.40;98.00;;;;;;6185175;23;20786;-68
2021/11/09 04:31:53;;;;;;;1.20;1.00;;;2.40;98.00;;;;;;6185022;23;20732;-68
2021/11/09 05:02:43;;;;;;;1.50;1.17;;;1.90;98.00;;;;;;6155017;23;20399;-68
2021/11/09 05:10:40;;;;;;;1.77;1.40;;;1.80;98.00;;;;;;6154920;23;20527;-68
2021/11/09 05:13:07;;;;;;;1.20;0.90;;;1.80;98.00;;;;;;6154823;23;20428;-68
2021/11/09 05:15:35;;;;;;;1.20;1.10;;;1.90;98.00;;;;;;6128797;23;20455;-68
2021/11/09 05:18:03;;;;;;;1.20;1.00;;;2.00;98.00;;;;;;6154880;23;20420;-68
2021/11/09 05:20:31;;;;;;;1.20;1.10;;;1.90;98.00;;;;;;6154475;23;20463;-68
2021/11/09 05:22:59;;;;;;;2.10;1.87;;;1.90;98.00;;;;;;6154708;23;20424;-68
2021/11/09 05:25:27;;;;;;;1.50;1.30;;;1.80;98.00;;;;;;6154400;23;20474;-68
2021/11/09 05:27:54;;;;;;;2.20;1.90;;;1.80;98.00;;;;;;6154381;23;20416;-68
2021/11/09 05:30:22;;;;;;;2.03;1.37;;;1.80;98.00;;;;;;6154671;23;20404;-68
2021/11/09 05:32:51;;;;;;;1.30;1.23;;;1.80;98.00;;;;;;6154722;23;20400;-68
2021/11/09 05:35:21;;;;;;;1.23;1.00;;;1.80;98.00;;;;;;6155193;23;20689;-68
2021/11/09 05:37:50;;;;;;;1.20;1.10;;;1.80;98.00;;;;;;6154691;23;20414;-68
2021/11/09 05:40:19;;;;;;;1.23;1.13;;;1.80;98.00;;;;;;6154973;23;20401;-68
2021/11/09 05:42:46;;;;;;;1.40;1.20;;;1.80;98.00;;;;;;6154397;23;20404;-68
2021/11/09 05:45:17;;;;;;;1.87;1.70;;;1.80;98.00;;;;;;6154449;23;20397;-68
2021/11/09 05:47:44;;;;;;;2.53;1.40;;;1.90;98.00;;;;;;6176350;23;20775;-68
2021/11/09 05:50:11;;;;;;;1.20;1.10;;;1.90;98.00;;;;;;6184530;23;20470;-68
2021/11/09 05:52:40;;;;;;;1.97;1.80;;;1.90;98.00;;;;;;6157633;23;20426;-68
2021/11/09 05:55:08;;;;;;;1.30;1.10;;;1.90;98.00;;;;;;6183476;23;20446;-68
2021/11/09 05:57:35;;;;;;;1.20;1.20;;;2.00;98.00;;;;;;6184107;23;20403;-68
2021/11/09 06:00:03;;;;;;;1.40;1.20;;;2.10;98.00;;;;;;6184172;23;20394;-69
2021/11/09 06:02:30;;;;;;;2.80;1.63;;;2.00;98.00;;;;;;6184293;23;20422;-69
2021/11/09 06:04:59;;;;;;;1.20;1.00;;;2.00;98.00;;;;;;6184405;23;20457;-70
2021/11/09 06:07:26;;;;;;;1.20;1.20;;;1.90;98.00;;;;;;6183980;23;20410;-69
2021/11/09 06:09:54;;;;;;;1.20;1.10;;;1.90;98.00;;;;;;6157594;23;20472;-69
2021/11/09 06:12:22;;;;;;;1.20;1.10;;;1.80;98.00;;;;;;6184538;23;20403;-69
2021/11/09 06:14:49;;;;;;;1.17;0.90;;;1.80;98.00;;;;;;6183698;23;20489;-70
2021/11/09 06:17:16;;;;;;;1.10;1.10;;;1.80;98.00;;;;;;6158402;23;20402;-70
2021/11/09 06:19:43;;;;;;;1.60;1.50;;;1.80;98.00;;;;;;6183453;23;20481;-70
2021/11/09 06:22:10;;;;;;;7.23;1.53;;;1.80;98.00;;;;;;6183960;23;20415;-70
2021/11/09 06:24:37;;;;;;;1.87;1.30;;;1.90;98.00;;;;;;6183542;23;20422;-70
2021/11/09 06:27:06;;;;;;;1.20;1.03;;;2.00;98.00;;;;;;6184346;23;20403;-70
2021/11/09 06:29:36;;;;;;;1.10;1.00;;;2.00;98.00;;;;;;6184134;23;20783;-69
2021/11/09 06:32:04;;;;;;;3.00;1.93;;;1.90;98.00;;;;;;6184417;23;20724;-69
2021/11/09 06:34:31;;;;;;;1.60;1.33;;;1.90;98.00;;;;;;6184054;23;20451;-70
2021/11/09 06:36:58;;;;;;;1.67;1.43;;;2.00;98.00;;;;;;6184338;23;20402;-69
2021/11/09 06:39:27;;;;;;;1.20;1.10;;;2.00;98.00;;;;;;6184097;23;20468;-70
2021/11/09 06:41:54;;;;;;;1.10;0.90;;;1.90;98.00;;;;;;6183958;23;20456;-69
2021/11/09 06:44:22;;;;;;;2.73;1.67;;;1.90;98.00;;;;;;6184068;23;20458;-69
2021/11/09 06:46:49;;;;;;;1.20;1.10;;;1.80;98.00;;;;;;6183688;23;20953;-69
2021/11/09 06:49:16;;;;;;;2.70;1.33;;;1.70;98.00;;;;;;6184025;23;20483;-70
2021/11/09 06:51:44;;;;;;;1.33;1.30;;;1.80;98.00;;;;;;6182663;23;20444;-69
2021/11/09 06:54:11;;;;;;;3.73;1.33;;;1.80;98.00;;;;;;6184173;23;20500;-69
2021/11/09 06:56:38;;;;;;;1.20;1.00;;;1.70;98.00;;;;;;6184478;23;20410;-69
2021/11/09 06:59:07;;;;;;;1.50;1.40;;;1.70;98.00;;;;;;6183776;23;20442;-69
2021/11/09 07:01:36;;;;;;;3.63;2.00;;;1.70;98.00;;;;;;6183603;23;20503;-70
2021/11/09 07:04:04;;;;;;;1.20;1.00;;;1.80;98.00;;;;;;6183929;23;20423;-70
2021/11/09 07:06:31;;;;;;;1.20;1.10;;;1.90;98.00;;;;;;6184736;23;20472;-69
2021/11/09 07:08:58;;;;;;;1.60;1.47;;;1.90;98.00;;;;;;6185661;23;20484;-70
2021/11/09 07:11:26;;;;;;;2.07;1.70;;;1.80;98.00;;;;;;6185559;23;20701;-70
2021/11/09 07:13:55;;;;;;;2.00;1.40;;;1.80;98.00;;;;;;6185236;23;20515;-70
2021/11/09 07:16:24;;;;;;;1.20;1.10;;;1.80;98.00;;;;;;6185417;23;20399;-69
2021/11/09 07:18:57;;;;;;;2.23;1.57;;;1.80;98.00;;;;;;6185001;23;20956;-69
2021/11/09 07:21:25;;;;;;;2.03;1.07;;;1.70;98.00;;;;;;6184659;23;20888;-70
2021/11/09 07:23:52;;;;;;;1.10;1.00;;;1.70;98.00;;;;;;6158480;23;20944;-70
2021/11/09 07:26:19;;;;;;;1.50;1.27;;;1.70;98.00;;;;;;6184571;23;20407;-70
2021/11/09 07:28:46;;;;;;;1.57;1.57;;;1.70;98.00;;;;;;6185595;23;20464;-70
2021/11/09 07:31:17;;;;;;;1.30;1.10;;;1.80;98.00;;;;;;6159403;23;20429;-68
2021/11/09 07:33:44;;;;;;;1.10;1.00;;;1.80;98.00;;;;;;6185089;23;20450;-70
2021/11/09 07:36:13;;;;;;;1.40;1.33;;;1.80;98.00;;;;;;6185160;23;20409;-70
2021/11/09 07:38:40;;;;;;;1.20;1.10;;;1.80;98.00;;;;;;6185588;23;20462;-70
2021/11/09 07:41:07;;;;;;;1.20;1.10;;;1.90;98.00;;;;;;6185534;23;20402;-70
2021/11/09 07:43:34;;;;;;;1.57;1.10;;;2.00;98.00;;;;;;6185097;23;20438;-69
2021/11/09 07:46:02;;;;;;;1.20;1.20;;;1.90;98.00;;;;;;6184226;23;20419;-69
2021/11/09 07:48:29;;;;;;;2.23;1.90;;;2.00;98.00;;;;;;6185454;23;20406;-69
2021/11/09 07:50:57;;;;;;;1.20;1.10;;;2.10;98.00;;;;;;6185080;23;20435;-69
2021/11/09 07:53:29;;;;;;;1.60;1.13;;;2.20;98.00;;;;;;6185045;23;20400;-69
2021/11/09 07:56:08;;;;;;;1.30;1.30;;;2.40;98.00;;;;;;6185356;23;20447;-69
2021/11/09 07:58:43;;;;;;;1.13;1.10;;;2.50;98.00;;;;;;6185511;23;20403;-69
2021/11/09 08:01:13;;;;;;;1.40;1.30;;;2.60;98.00;;;;;;6185034;23;20406;-69
2021/11/09 08:03:45;;;;;;;1.87;1.40;;;2.70;98.00;;;;;;6185430;23;20406;-69
2021/11/09 08:06:20;;;;;;;1.17;1.00;;;2.80;98.00;;;;;;6185182;23;20399;-69
2021/11/09 08:09:02;;;;;;;2.03;1.77;;;2.90;98.00;;;;;;6184972;23;20402;-67
2021/11/09 08:11:30;;;;;;;2.30;1.67;;;2.90;98.00;;;;;;6185559;23;20470;-69
2021/11/09 08:13:57;;;;;;;3.47;1.60;;;3.00;98.00;;;;;;6182826;23;20439;-68
2021/11/09 08:16:24;;;;;;;1.67;1.23;;;3.10;98.00;;;;;;6184443;23;20407;-69
2021/11/09 08:18:51;;;;;;;1.50;1.10;;;3.20;98.00;;;;;;6183529;23;20473;-70
2021/11/09 08:21:18;;;;;;;2.03;1.80;;;3.30;98.00;;;;;;6156960;23;20903;-70
2021/11/09 08:23:48;;;;;;;2.63;1.70;;;3.30;98.00;;;;;;6184136;23;20730;-70
2021/11/09 08:26:20;;;;;;;2.17;1.20;;;3.40;98.00;;;;;;6183884;23;20477;-70
2021/11/09 08:28:48;;;;;;;1.63;1.37;;;3.60;98.00;;;;;;6183950;23;20875;-70
2021/11/09 08:31:18;;;;;;;1.40;1.10;;;3.60;98.00;;;;;;6183287;23;20404;-69
2021/11/09 08:33:46;;;;;;;5.10;1.70;;;3.70;98.00;;;;;;6183430;23;20422;-69
2021/11/09 08:36:15;;;;;;;2.80;1.60;;;3.90;98.00;;;;;;6183596;23;20466;-68
2021/11/09 08:38:44;;;;;;;1.70;1.60;;;3.80;98.00;;;;;;6183796;23;20392;-70
2021/11/09 08:41:12;;;;;;;1.20;1.00;;;3.90;98.00;;;;;;6183732;23;20399;-70
2021/11/09 08:43:49;;;;;;;1.97;1.20;;;3.90;98.00;;;;;;6183147;23;20427;-70
2021/11/09 08:46:19;;;;;;;1.20;1.10;;;3.90;98.00;;;;;;6183537;23;20770;-70
2021/11/09 08:48:52;;;;;;;1.30;1.20;;;4.10;98.00;;;;;;6182644;23;20487;-70
2021/11/09 08:51:21;;;;;;;2.13;1.87;;;4.10;98.00;;;;;;6184333;23;20762;-70
2021/11/09 08:53:54;;;;;;;1.30;1.20;;;4.20;98.00;;;;;;6157718;23;20458;-70
2021/11/09 08:56:50;;;;;;;1.20;1.20;;;4.30;98.00;;;;;;6184280;23;20461;-70
2021/11/09 09:04:51;;;;;;;2.67;1.60;;;4.50;98.00;;;;;;6183863;23;20442;-70
2021/11/09 09:07:18;;;;;;;1.50;1.20;;;4.60;98.00;;;;;;6184789;23;20410;-70
2021/11/09 09:09:46;;;;;;;1.87;1.30;;;4.90;98.00;;;;;;6183835;23;20416;-67
2021/11/09 09:12:13;;;;;;;1.20;1.00;;;4.80;98.00;;;;;;6184413;23;20404;-70
2021/11/09 09:14:42;;;;;;;1.30;1.13;;;4.90;98.00;;;;;;6183667;23;20428;-70
2021/11/09 09:17:09;;;;;;;1.30;1.30;;;5.00;98.00;;;;;;6184511;23;20714;-71
2021/11/09 09:19:41;;;;;;;1.50;1.40;;;5.10;98.00;;;;;;6184411;23;20482;-70
2021/11/09 09:22:30;;;;;;;1.53;1.10;;;5.20;98.00;;;;;;6183505;23;20403;-70
2021/11/09 09:25:09;;;;;;;2.60;1.30;;;5.20;98.00;;;;;;6183044;23;20423;-70
2021/11/09 09:27:53;;;;;;;1.47;1.43;;;5.30;98.00;;;;;;6183317;23;20400;-70
2021/11/09 09:30:38;;;;;;;1.40;1.30;;;5.50;98.00;;;;;;6183684;23;20407;-70
2021/11/09 09:52:39;;;;;;;1.20;1.20;;;6.40;98.00;;;;;;6182521;23;20414;-70
2021/11/09 09:55:35;;;;;;;1.30;1.10;;;6.40;98.00;;;;;;6183161;23;20458;-70
2021/11/09 09:58:03;;;;;;;2.13;1.23;;;6.40;98.00;;;;;;6182719;23;20410;-70
2021/11/09 10:00:30;;;;;;;1.20;1.10;;;6.50;98.00;;;;;;6182990;23;20404;-70
2021/11/09 10:02:59;;;;;;;1.20;1.10;;;6.60;98.00;;;;;;6182434;23;20428;-70
2021/11/09 10:05:29;;;;;;;2.33;2.20;;;6.80;98.00;;;;;;6182825;23;20857;-69
2021/11/09 10:07:58;;;;;;;1.73;1.53;;;7.10;98.00;;;;;;6182868;23;20454;-70
2021/11/09 10:10:27;;;;;;;1.40;1.30;;;7.10;98.00;;;;;;6182886;23;20466;-70
2021/11/09 10:13:00;;;;;;;1.33;1.10;;;7.30;98.00;;;;;;6182525;23;20402;-69
2021/11/09 10:15:29;;;;;;;1.20;0.90;;;7.50;98.00;;;;;;6183008;23;20484;-69
2021/11/09 10:18:02;;;;;;;2.23;1.17;;;7.60;98.00;;;;;;6182759;23;20454;-68
2021/11/09 10:20:33;;;;;;;1.20;1.10;;;7.70;98.00;;;;;;6182876;23;20395;-68
2021/11/09 10:23:02;;;;;;;1.40;1.13;;;7.80;98.00;;;;;;6183251;23;20485;-68
2021/11/09 10:25:30;;;;;;;1.63;1.33;;;8.00;98.00;;;;;;6182909;23;20392;-68
2021/11/09 10:28:02;;;;;;;1.50;1.10;;;8.20;98.00;;;;;;6183028;23;20456;-68
2021/11/09 10:30:32;;;;;;;1.20;1.00;;;8.30;98.00;;;;;;6183175;23;20774;-67
2021/11/09 10:33:00;;;;;;;1.93;1.23;;;8.50;98.00;;;;;;6183044;23;20405;-68
2021/11/09 10:35:29;;;;;;;1.40;1.10;;;8.70;98.00;;;;;;6183089;23;20503;-68
2021/11/09 10:37:59;;;;;;;1.20;1.00;;;9.00;98.00;;;;;;6182999;23;20398;-69
2021/11/09 10:40:28;;;;;;;1.40;1.10;;;9.50;98.00;;;;;;6183436;23;20404;-69
2021/11/09 10:42:59;;;;;;;1.20;1.10;;;9.70;98.00;;;;;;6185209;23;20472;-69
2021/11/09 10:45:29;;;;;;;1.30;1.17;;;9.80;98.00;;;;;;6185361;23;20471;-68
2021/11/09 10:47:59;;;;;;;1.20;1.00;;;9.90;98.00;;;;;;6184464;23;20904;-68
2021/11/09 10:50:30;;;;;;;1.97;1.20;;;9.90;98.00;;;;;;6184119;23;20426;-68
2021/11/09 10:53:09;;;;;;;1.30;1.13;;;10.00;98.00;;;;;;6184713;23;20410;-69
2021/11/09 10:55:41;;;;;;;1.57;1.30;;;10.10;98.00;;;;;;6184664;23;20916;-67
2021/11/09 10:58:22;;;;;;;1.20;1.00;;;10.30;98.00;;;;;;6156854;23;20416;-68
2021/11/09 11:04:03;;;;;;;1.20;0.90;;;10.60;98.00;;;;;;6182582;23;20927;-68
2021/11/09 11:06:33;;;;;;;1.40;1.10;;;10.80;98.00;;;;;;6184481;23;20418;-69
2021/11/09 11:09:03;;;;;;;1.40;1.13;;;10.90;98.00;;;;;;6184531;23;20493;-69
2021/11/09 11:11:39;;;;;;;1.20;1.00;;;11.10;98.00;;;;;;6184758;23;20473;-68
2021/11/09 11:14:13;;;;;;;1.20;1.00;;;11.20;98.00;;;;;;6157741;23;20757;-67
2021/11/09 11:16:42;;;;;;;1.20;1.10;;;11.40;98.00;;;;;;6184496;23;20492;-67
2021/11/09 11:19:10;;;;;;;1.20;1.07;;;11.60;98.00;;;;;;6184218;23;20400;-68
2021/11/09 11:21:39;;;;;;;1.20;1.00;;;11.60;97.10;;;;;;6184364;23;20403;-68
2021/11/09 11:24:08;;;;;;;1.20;1.00;;;11.70;96.20;;;;;;6158539;23;20401;-68
2021/11/09 11:26:36;;;;;;;1.30;1.13;;;11.90;95.70;;;;;;6184517;23;20399;-68
2021/11/09 11:29:05;;;;;;;1.20;1.07;;;12.00;96.10;;;;;;6158199;23;20401;-68
2021/11/09 11:31:32;;;;;;;1.20;1.00;;;12.20;95.70;;;;;;6184549;23;20454;-68
2021/11/09 11:34:00;;;;;;;1.20;1.00;;;12.40;94.50;;;;;;6183996;23;20426;-68
2021/11/09 11:36:27;;;;;;;1.57;1.07;;;12.40;93.80;;;;;;6184144;23;20427;-68
2021/11/09 11:39:01;;;;;;;1.27;1.10;;;12.30;94.20;;;;;;6184085;23;20473;-68
2021/11/09 11:41:31;;;;;;;1.20;1.00;;;12.40;94.10;;;;;;6184125;23;20945;-68
2021/11/09 11:44:02;;;;;;;1.20;1.10;;;12.50;93.70;;;;;;6183988;23;20408;-68
2021/11/09 11:46:57;;;;;;;1.67;1.20;;;12.60;93.50;;;;;;6185963;23;20429;-67
2021/11/09 11:49:48;;;;;;;1.30;1.17;;;12.60;92.50;;;;;;6102846;23;20427;-68
2021/11/09 11:52:27;;;;;;;1.20;1.00;;;12.80;93.50;;;;;;6183701;23;20404;-69
2021/11/09 11:55:22;;;;;;;2.80;1.20;;;12.80;94.20;;;;;;6184423;23;20948;-68
2021/11/09 11:57:54;;;;;;;1.30;1.10;;;12.80;93.00;;;;;;6184517;23;20891;-68
2021/11/09 12:00:55;;;;;;;1.20;1.07;;;12.60;93.00;;;;;;6183388;23;20421;-69
2021/11/09 12:03:37;;;;;;;1.30;1.07;;;12.40;93.10;;;;;;6184242;23;20741;-68
2021/11/09 12:06:24;;;;;;;1.30;1.00;;;12.20;94.20;;;;;;6183696;23;20408;-69
2021/11/09 12:08:54;;;;;;;1.30;1.20;;;12.10;94.30;;;;;;6183970;23;20871;-69
2021/11/09 12:11:42;;;;;;;1.40;1.30;;;12.10;94.30;;;;;;6183977;23;20487;-68
2021/11/09 12:14:12;;;;;;;1.20;1.20;;;12.10;94.60;;;;;;6184069;23;20495;-68
2021/11/09 12:16:54;;;;;;;1.20;1.10;;;12.20;93.60;;;;;;6183781;23;20514;-68
2021/11/09 12:19:58;;;;;;;1.83;1.20;;;12.30;94.60;;;;;;6183968;23;20403;-69
2021/11/09 12:22:37;;;;;;;1.80;1.30;;;12.30;93.60;;;;;;6184068;23;20399;-69
2021/11/09 12:25:07;;;;;;;3.20;1.37;;;12.30;94.30;;;;;;6183310;23;20404;-69
2021/11/09 12:28:02;;;;;;;1.90;1.53;;;12.20;93.20;;;;;;6157882;23;20455;-69
2021/11/09 12:30:50;;;;;;;1.70;1.20;;;12.20;93.60;;;;;;6183571;23;20874;-69
2021/11/09 12:33:19;;;;;;;1.20;1.10;;;12.20;93.30;;;;;;6183145;23;20422;-69
2021/11/09 12:35:49;;;;;;;1.23;1.23;;;12.10;93.10;;;;;;6183777;23;20440;-71
2021/11/09 12:38:19;;;;;;;1.30;1.20;;;12.00;93.10;;;;;;6183703;23;20461;-70
2021/11/09 12:40:51;;;;;;;1.30;1.10;;;12.10;94.20;;;;;;6193425;23;20778;-71
2021/11/09 12:43:43;;;;;;;2.13;1.50;;;12.30;93.80;;;;;;6183760;23;20403;-71
2021/11/09 12:46:13;;;;;;;1.20;1.10;;;12.30;92.80;;;;;;6183329;23;20395;-71
2021/11/09 12:48:49;;;;;;;1.20;1.20;;;12.50;92.50;;;;;;6183576;23;20432;-71
2021/11/09 12:51:17;;;;;;;1.20;1.10;;;12.50;93.40;;;;;;6182848;23;20437;-70
2021/11/09 12:53:47;;;;;;;2.37;1.30;;;12.60;92.90;;;;;;6182767;23;20408;-71
2021/11/09 12:56:17;;;;;;;1.20;1.10;;;12.60;91.90;;;;;;6192702;23;20434;-71
2021/11/09 12:58:53;;;;;;;1.20;1.00;;;12.60;91.60;;;;;;6192864;23;20486;-70
2021/11/09 13:01:47;;;;;;;1.83;1.13;;;12.70;92.10;;;;;;6182993;23;20416;-71
2021/11/09 13:04:27;;;;;;;1.30;1.13;;;12.80;91.60;;;;;;6184001;23;20496;-71
2021/11/09 13:07:12;;;;;;;1.60;1.30;;;13.00;91.80;;;;;;6193450;23;20403;-73
2021/11/09 13:09:44;;;;;;;1.20;1.10;;;13.20;90.40;;;;;;6183449;23;20421;-72
2021/11/09 13:12:14;;;;;;;1.20;1.20;;;13.30;91.80;;;;;;6183922;23;20408;-71
2021/11/09 13:14:45;;;;;;;1.20;1.10;;;13.10;90.80;;;;;;6184054;23;20700;-71
2021/11/09 13:17:22;;;;;;;1.20;1.00;;;12.90;91.60;;;;;;6183292;23;20434;-71
2021/11/09 13:20:00;;;;;;;1.30;1.20;;;12.60;92.00;;;;;;6184009;23;20406;-72
2021/11/09 13:22:30;;;;;;;1.20;1.00;;;12.40;91.80;;;;;;6158571;23;20494;-71
2021/11/09 13:25:01;;;;;;;1.20;1.00;;;12.20;92.50;;;;;;6184081;23;20433;-72
2021/11/09 13:27:36;;;;;;;4.70;1.43;;;11.90;93.60;;;;;;6184396;23;20398;-71
2021/11/09 13:30:13;;;;;;;1.20;1.10;;;11.70;93.50;;;;;;6184418;23;20407;-72
2021/11/09 13:32:40;;;;;;;1.83;1.30;;;11.70;95.00;;;;;;6184422;23;20404;-72
2021/11/09 13:35:16;;;;;;;1.20;1.10;;;11.60;94.30;;;;;;6184313;23;20484;-71
2021/11/09 13:37:43;;;;;;;1.33;1.30;;;11.50;94.80;;;;;;6184466;23;20763;-71
2021/11/09 13:40:12;;;;;;;1.30;1.27;;;11.50;94.50;;;;;;6184082;23;20878;-72
2021/11/09 13:42:40;;;;;;;1.50;1.30;;;11.50;94.90;;;;;;6184163;23;20438;-71
2021/11/09 13:45:15;;;;;;;1.37;1.20;;;11.40;94.50;;;;;;6184560;23;20748;-72
2021/11/09 13:47:43;;;;;;;1.20;1.10;;;11.30;95.40;;;;;;6183944;23;20429;-71
2021/11/09 13:50:12;;;;;;;1.83;1.23;;;11.40;95.80;;;;;;6184286;23;20431;-71
2021/11/09 13:52:45;;;;;;;1.30;1.20;;;11.40;94.90;;;;;;6184480;23;20407;-71
2021/11/09 13:55:13;;;;;;;1.63;1.20;;;11.40;95.00;;;;;;6184211;23;20842;-71
2021/11/09 13:57:40;;;;;;;1.30;1.20;;;11.30;95.40;;;;;;6184126;23;20452;-71
2021/11/09 14:00:25;;;;;;;1.20;1.07;;;11.40;95.60;;;;;;6183900;23;20419;-73
2021/11/09 14:03:08;;;;;;;1.20;1.00;;;11.40;94.50;;;;;;6184398;23;20476;-71
2021/11/09 14:05:52;;;;;;;1.20;1.00;;;11.30;95.00;;;;;;6183943;23;20927;-70
2021/11/09 14:11:51;;;;;;;1.20;1.00;;;11.70;94.10;;;;;;6160948;23;20984;-72
2021/11/09 14:14:49;;;;;;;1.30;1.10;;;11.90;93.70;;;;;;6184363;23;20415;-72
2021/11/09 14:17:20;;;;;;;1.20;1.00;;;12.00;93.10;;;;;;6185988;23;20453;-71
2021/11/09 14:19:47;;;;;;;1.20;1.00;;;12.90;90.60;;;;;;6186678;23;20421;-71
2021/11/09 14:22:17;;;;;;;3.57;1.57;;;13.40;90.00;;;;;;6186703;23;20408;-71
2021/11/09 14:24:57;;;;;;;2.13;1.20;;;13.70;88.10;;;;;;6186700;23;20408;-73
2021/11/09 14:27:29;;;;;;;1.20;1.20;;;14.40;86.90;;;;;;6186137;23;20397;-71
2021/11/09 14:30:00;;;;;;;1.40;1.30;;;15.10;85.70;;;;;;6186583;23;20724;-71
2021/11/09 14:32:33;;;;;;;1.20;1.20;;;15.60;83.30;;;;;;6185551;23;20427;-72
2021/11/09 14:35:05;;;;;;;1.30;1.20;;;16.20;82.50;;;;;;6185903;23;20406;-72
2021/11/09 14:37:35;;;;;;;1.27;1.10;;;16.50;80.70;;;;;;6186015;23;20502;-71
2021/11/09 14:40:08;;;;;;;1.30;1.20;;;16.90;79.70;;;;;;6185826;23;20869;-71
2021/11/09 14:42:57;;;;;;;2.73;1.60;;;17.50;78.80;;;;;;6186107;23;20405;-72
2021/11/09 14:45:29;;;;;;;2.20;1.30;;;17.80;77.60;;;;;;6185952;23;20457;-72
2021/11/09 14:48:04;;;;;;;1.60;1.50;;;18.10;76.30;;;;;;6185786;23;20428;-72
2021/11/09 14:50:38;;;;;;;1.37;1.17;;;18.30;76.30;;;;;;6185901;23;20399;-72
2021/11/09 14:53:16;;;;;;;1.73;1.40;;;18.70;75.40;;;;;;6185606;23;20418;-73